Flight Track Log - Related Links

Times and Time Zones

All times are in EDT time to prevent confusion due to time zone crossing. See the SRY658 flight status page for this flight to view local times or setup timezone preferences in your user account.

Time Position Orientation Groundspeed Altitude Reporting Facility
EDT Latitude Longitude Course Direction KTS MPH feet Rate Location/Type
Mon 02:30:18 PM 37.4000 -120.5833 332° Northwest 159 183 1,300  Level Northern Cal TRACON
Mon 02:31:24 PM 37.4500 -120.6167 72° East 193 222 3,000 1,701 Climbing Northern Cal TRACON
Mon 02:32:25 PM 37.4667 -120.5500 71° East 188 216 4,900 1,714 Climbing Northern Cal TRACON
Mon 02:34:33 PM 37.5050 -120.4056 74° East 196 226 8,400 1,619 Climbing Oakland Center
Mon 02:35:34 PM 37.5192 -120.3425 77° East 196 226 10,000 1,450 Climbing Oakland Center
Mon 02:36:33 PM 37.5314 -120.2769 72° East 191 220 11,300 1,311 Climbing Oakland Center
Mon 02:37:33 PM 37.5497 -120.2061 72° East 196 226 12,600 1,250 Climbing Oakland Center
Mon 02:38:33 PM 37.5681 -120.1350 71° East 201 231 13,800 1,200 Climbing Oakland Center
Mon 02:39:33 PM 37.5883 -120.0614 79° East 211 243 15,000 1,250 Climbing Oakland Center
Mon 02:40:33 PM 37.5981 -119.9983 76° East 205 236 16,300 1,200 Climbing Oakland Center
Mon 02:41:33 PM 37.6122 -119.9275 72° East 198 228 17,400 1,050 Climbing Oakland Center
Mon 02:42:33 PM 37.6322 -119.8511 68° East 209 241 18,400 1,050 Climbing Oakland Center
Mon 02:43:33 PM 37.6586 -119.7694 70° East 229 264 19,500 1,050 Climbing Oakland Center
Mon 02:44:33 PM 37.6786 -119.6981 75° East 228 262 20,500 1,000 Climbing Oakland Center
Mon 02:45:33 PM 37.6925 -119.6322 78° East 217 250 21,500 1,240 Climbing Oakland Center
Mon 02:46:34 PM 37.7042 -119.5611 73° East 203 234 23,000 600 Climbing Oakland Center
Mon 02:47:33 PM 37.7222 -119.4847 77° East 203 234 22,700 50 Descending Oakland Center
Mon 02:48:33 PM 37.7358 -119.4108 71° East 209 241 23,100 198 Climbing Oakland Center
Mon 02:49:34 PM 37.7597 -119.3236 76° East 230 265 23,100  Level Oakland Center
Mon 02:50:34 PM 37.7769 -119.2339 73° East 250 288 23,100  Level Oakland Center
Mon 02:51:33 PM 37.7986 -119.1442 74° East 256 295 23,100  Level Oakland Center
Mon 02:52:33 PM 37.8161 -119.0647 70° East 249 287 23,100  Level Oakland Center
Mon 02:53:33 PM 37.8397 -118.9828 75° East 244 281 23,100  Level Oakland Center
Mon 02:54:33 PM 37.8572 -118.9006 74° East 244 281 23,100  Level Oakland Center
Mon 02:55:33 PM 37.8725 -118.8317 75° East 238 274 23,100  Level Oakland Center
Mon 02:56:33 PM 37.8900 -118.7497 74° East 233 268 23,100  Level Oakland Center
Mon 02:57:33 PM 37.9092 -118.6675 73° East 233 268 23,100  Level Oakland Center
Mon 02:58:33 PM 37.9283 -118.5881 76° East 238 274 23,100  Level Oakland Center
Mon 02:59:33 PM 37.9456 -118.5031 75° East 238 274 23,100  Level Oakland Center
Mon 03:00:33 PM 37.9625 -118.4236 74° East 238 274 23,100  Level Oakland Center
Mon 03:01:33 PM 37.9817 -118.3411 75° East 238 274 23,100  Level Oakland Center
Mon 03:02:33 PM 37.9986 -118.2614 76° East 238 274 23,100  Level Oakland Center
Mon 03:03:33 PM 38.0153 -118.1764 76° East 243 280 23,100  Level Oakland Center
Mon 03:04:33 PM 38.0319 -118.0914 74° East 243 280 23,100  Level Oakland Center
Mon 03:05:33 PM 38.0508 -118.0064 74° East 243 280 23,100  Level Oakland Center
Mon 03:06:33 PM 38.0694 -117.9211 76° East 243 280 23,100  Level Oakland Center
Mon 03:08:56 PM 38.1111 -117.7139 74° East 251 289 23,100  Level Salt Lake Center
Mon 03:09:58 PM 38.1294 -117.6303 75° East 248 285 23,100  Level Salt Lake Center
Mon 03:11:00 PM 38.1469 -117.5456 75° East 248 285 23,100  Level Salt Lake Center
Mon 03:12:02 PM 38.1653 -117.4592 75° East 251 289 23,100  Level Salt Lake Center
Mon 03:13:05 PM 38.1831 -117.3736 75° East 250 288 23,100  Level Salt Lake Center
Mon 03:14:07 PM 38.2042 -117.2733 75° East 244 281 23,100  Level Salt Lake Center
Mon 03:15:09 PM 38.2217 -117.1886 75° East 242 278 23,100  Level Salt Lake Center
Mon 03:16:11 PM 38.2389 -117.1047 75° East 241 277 23,100  Level Salt Lake Center
Mon 03:17:13 PM 38.2553 -117.0242 75° East 236 272 23,100  Level Salt Lake Center
Mon 03:18:15 PM 38.2717 -116.9433 75° East 235 270 23,100  Level Salt Lake Center
Mon 03:19:17 PM 38.2886 -116.8617 76° East 238 274 23,100  Level Salt Lake Center
Mon 03:20:20 PM 38.3050 -116.7800 76° East 237 273 23,100  Level Salt Lake Center
Mon 03:21:22 PM 38.3211 -116.6975 75° East 240 276 23,100  Level Salt Lake Center
Mon 03:22:24 PM 38.3411 -116.6000 76° East 237 273 23,100  Level Salt Lake Center
Mon 03:23:26 PM 38.3575 -116.5186 76° East 237 273 23,100  Level Salt Lake Center
Mon 03:24:28 PM 38.3739 -116.4364 75° East 238 274 23,100  Level Salt Lake Center
Mon 03:25:30 PM 38.3903 -116.3561 76° East 236 272 23,100  Level Salt Lake Center
Mon 03:26:32 PM 38.4061 -116.2756 76° East 235 270 23,100  Level Salt Lake Center
Mon 03:27:34 PM 38.4214 -116.1947 96° East 235 270 23,100  Level Salt Lake Center
Mon 03:28:37 PM 38.4114 -116.0825 98° East 263 303 23,100  Level Salt Lake Center
Mon 03:29:39 PM 38.4017 -115.9906 96° East 266 306 23,100  Level Salt Lake Center
Mon 03:30:41 PM 38.3939 -115.8981 96° East 265 305 23,100  Level Salt Lake Center
Mon 03:31:43 PM 38.3861 -115.8056 96° East 262 302 23,100  Level Salt Lake Center
Mon 03:32:46 PM 38.3781 -115.7103 97° East 267 307 23,100  Level Salt Lake Center
Mon 03:33:48 PM 38.3683 -115.6136 97° East 273 314 23,100  Level Salt Lake Center
Mon 03:34:50 PM 38.3583 -115.5025 96° East 266 306 23,100  Level Salt Lake Center
Mon 03:35:52 PM 38.3503 -115.4094 97° East 265 305 23,100  Level Salt Lake Center
Mon 03:36:55 PM 38.3422 -115.3267 96° East 264 304 23,100  Level Salt Lake Center
Mon 03:37:57 PM 38.3342 -115.2347 97° East 261 300 23,100  Level Salt Lake Center
Mon 03:38:59 PM 38.3236 -115.1219 97° East 262 302 23,100 -602 Level Salt Lake Center
Mon 03:42:06 PM 38.2944 -114.8306 97° East 282 325 20,600 -1,012 Descending Salt Lake Center
Mon 03:43:08 PM 38.2853 -114.7300 97° East 283 326 18,900 -1,452 Descending Salt Lake Center
Mon 03:44:10 PM 38.2753 -114.6325 98° East 278 320 17,600 -919 Descending Salt Lake Center
Mon 03:47:16 PM 38.2458 -114.3697 114° Southeast 243 280 15,100 -295 Descending Salt Lake Center
Mon 03:52:39 PM 38.0792 -113.8972 113° Southeast 266 306 15,100  Level Salt Lake Center
Mon 03:53:41 PM 38.0497 -113.8083 114° Southeast 267 307 15,100  Level Salt Lake Center
Mon 03:54:44 PM 38.0189 -113.7214 115° Southeast 267 307 15,100  Level Salt Lake Center
Mon 03:55:46 PM 37.9881 -113.6358 115° Southeast 266 306 15,100 -435 Level Salt Lake Center
Mon 03:56:48 PM 37.9572 -113.5511 114° Southeast 264 304 14,200 -1,161 Descending Salt Lake Center
Mon 03:57:50 PM 37.9286 -113.4706 118° Southeast 257 296 12,700 -1,548 Descending Salt Lake Center
Mon 03:58:52 PM 37.8964 -113.3947 128° Southeast 249 287 11,000 -1,500 Descending Salt Lake Center
Mon 03:59:54 PM 37.8536 -113.3264 127° Southeast 246 283 9,600 -1,306 Descending Salt Lake Center
Mon 04:00:56 PM 37.8136 -113.2583 127° Southeast 240 276 8,300 -1,258 Descending Salt Lake Center

Login

Don't have an account? Register now (free) for customized features, flight alerts, and more!